Список аэропортов
Фактическая погода:

21 августа, 07:00
Температура: +22°C (+22.0*)
Ветер: 0
Давление: *766 мм
Без существ. явл.
Время (МСК)Темп. СВетерВлажностьДавлениеОблачностьОсадки
03:00+24С, 4 м/с25%1020 гПаясно
04:00+23С, 4 м/с26%1020 гПаясно
05:00+22С, 3 м/с28%1020 гПаясно
06:00+21С, 3 м/с30%1020 гПаясно
07:00+20СВ, 3 м/с33%1020 гПаясно
08:00+20СВ, 3 м/с35%1021 гПаясно
09:00+19С, 2 м/с40%1021 гПаясно
10:00+20СВ, 3 м/с41%1020 гПаясно
11:00+23СВ, 3 м/с44%1020 гПаясно
12:00+26В, 2 м/с51%1019 гПаясно
13:00+28В, 1 м/с47%1018 гПаясно
14:00+30ЮВ, 2 м/с41%1018 гПаясно
15:00+32ЮВ, 2 м/с35%1017 гПаясно
16:00+34Ю, 2 м/с30%1016 гПаясно
17:00+36Ю, 3 м/с27%1015 гПаясно
18:00+36Ю, 3 м/с24%1014 гПаясно
19:00+36Ю, 2 м/с22%1014 гПаясно
20:00+36Ю, 2 м/с22%1014 гПаясно
21:00+35Ю, 2 м/с22%1014 гПаясно
22:00+33Ю, 2 м/с27%1015 гПаясно
23:00+29ЮВ, 1 м/с37%1016 гПаясно
22 августа
00:00+27В, 1 м/с42%1016 гПаясно
01:00+26СВ, 1 м/с46%1016 гПаясно
02:00+25ЮВ, 2 м/с45%1016 гПаясно
03:00+24Ю, 2 м/с54%1017 гПаясно
04:00+24ЮВ, 2 м/с59%1018 гПамалооблачно
05:00+24В, 2 м/с62%1018 гПамалооблачно
06:00+22С, 2 м/с68%1018 гПаясно
07:00+21СВ, 1 м/с73%1018 гПамалооблачно
08:00+20СВ, 1 м/с78%1019 гПаясно
09:00+19СВ, 2 м/с81%1019 гПаясно
10:00+21СВ, 1 м/с75%1019 гПаясно
11:00+25ЮВ, 2 м/с58%1018 гПаясно
12:00+26ЮВ, 1 м/с52%1018 гПаясно
13:00+28ЮВ, 1 м/с45%1017 гПаясно
14:00+31Ю, 2 м/с38%1016 гПаясно
15:00+33Ю, 2 м/с31%1015 гПаясно
16:00+35ЮЗ, 3 м/с27%1015 гПаясно
17:00+36ЮЗ, 3 м/с23%1014 гПаясно
18:00+36ЮЗ, 4 м/с21%1014 гПаоблачно
19:00+36ЮЗ, 4 м/с20%1013 гПаоблачно
20:00+36ЮЗ, 3 м/с19%1013 гПаоблачно
21:00+35ЮЗ, 3 м/с19%1013 гПамалооблачно
22:00+32З, 2 м/с24%1014 гПамалооблачно
23:00+30СЗ, 2 м/с33%1015 гПамалооблачно
23 августа
00:00+28СЗ, 2 м/с43%1016 гПаясно
01:00+26СЗ, 2 м/с54%1016 гПаясно
02:00+24С, 2 м/с61%1016 гПаясно
03:00+23С, 2 м/с61%1016 гПаясно